sensor_id;sensor_type;location;lat;lon;timestamp;temperature;humidity
7388;DHT22;3735;50.136;11.062;2024-03-06T00:02:10;7.40;99.90
7388;DHT22;3735;50.136;11.062;2024-03-06T00:04:37;7.40;99.90
7388;DHT22;3735;50.136;11.062;2024-03-06T00:07:04;7.40;99.90
7388;DHT22;3735;50.136;11.062;2024-03-06T00:09:29;7.40;99.90
7388;DHT22;3735;50.136;11.062;2024-03-06T00:11:56;7.40;99.90
7388;DHT22;3735;50.136;11.062;2024-03-06T00:14:22;7.40;99.90
7388;DHT22;3735;50.136;11.062;2024-03-06T00:16:49;7.40;99.90
7388;DHT22;3735;50.136;11.062;2024-03-06T00:19:17;7.40;99.90
7388;DHT22;3735;50.136;11.062;2024-03-06T00:21:43;7.40;99.90
7388;DHT22;3735;50.136;11.062;2024-03-06T00:24:13;7.40;99.90
7388;DHT22;3735;50.136;11.062;2024-03-06T00:26:46;7.50;99.90
7388;DHT22;3735;50.136;11.062;2024-03-06T00:29:14;7.40;99.90
7388;DHT22;3735;50.136;11.062;2024-03-06T00:31:44;7.40;99.90
7388;DHT22;3735;50.136;11.062;2024-03-06T00:34:11;7.40;99.90
7388;DHT22;3735;50.136;11.062;2024-03-06T00:36:39;7.40;99.90
7388;DHT22;3735;50.136;11.062;2024-03-06T00:39:06;7.40;99.90
7388;DHT22;3735;50.136;11.062;2024-03-06T00:41:34;7.40;99.90
7388;DHT22;3735;50.136;11.062;2024-03-06T00:44:00;7.40;99.90
7388;DHT22;3735;50.136;11.062;2024-03-06T00:46:25;7.40;99.90
7388;DHT22;3735;50.136;11.062;2024-03-06T00:48:51;7.40;99.90
7388;DHT22;3735;50.136;11.062;2024-03-06T00:51:17;7.40;99.90
7388;DHT22;3735;50.136;11.062;2024-03-06T00:53:43;7.40;99.90
7388;DHT22;3735;50.136;11.062;2024-03-06T00:56:10;7.40;99.90
7388;DHT22;3735;50.136;11.062;2024-03-06T00:58:35;7.40;99.90
7388;DHT22;3735;50.136;11.062;2024-03-06T01:01:02;7.40;99.90
7388;DHT22;3735;50.136;11.062;2024-03-06T01:03:27;7.40;99.90
7388;DHT22;3735;50.136;11.062;2024-03-06T01:05:54;7.40;99.90
7388;DHT22;3735;50.136;11.062;2024-03-06T01:08:23;7.40;99.90
7388;DHT22;3735;50.136;11.062;2024-03-06T01:10:51;7.40;99.90
7388;DHT22;3735;50.136;11.062;2024-03-06T01:13:18;7.30;99.90
7388;DHT22;3735;50.136;11.062;2024-03-06T01:15:46;7.40;99.90
7388;DHT22;3735;50.136;11.062;2024-03-06T01:18:12;7.40;99.90
7388;DHT22;3735;50.136;11.062;2024-03-06T01:20:38;7.40;99.90
7388;DHT22;3735;50.136;11.062;2024-03-06T01:23:05;7.30;99.90
7388;DHT22;3735;50.136;11.062;2024-03-06T01:25:30;7.30;99.90
7388;DHT22;3735;50.136;11.062;2024-03-06T01:27:56;7.30;99.90
7388;DHT22;3735;50.136;11.062;2024-03-06T01:30:22;7.30;99.90
7388;DHT22;3735;50.136;11.062;2024-03-06T01:32:48;7.40;99.90
7388;DHT22;3735;50.136;11.062;2024-03-06T01:35:13;7.30;99.90
7388;DHT22;3735;50.136;11.062;2024-03-06T01:37:39;7.30;99.90
7388;DHT22;3735;50.136;11.062;2024-03-06T01:40:05;7.40;99.90
7388;DHT22;3735;50.136;11.062;2024-03-06T01:42:34;7.30;99.90
7388;DHT22;3735;50.136;11.062;2024-03-06T01:45:00;7.30;99.90
7388;DHT22;3735;50.136;11.062;2024-03-06T01:47:27;7.30;99.90
7388;DHT22;3735;50.136;11.062;2024-03-06T01:49:52;7.40;99.90
7388;DHT22;3735;50.136;11.062;2024-03-06T01:52:19;7.40;99.90
7388;DHT22;3735;50.136;11.062;2024-03-06T01:54:48;7.40;99.90
7388;DHT22;3735;50.136;11.062;2024-03-06T01:57:16;7.30;99.90
7388;DHT22;3735;50.136;11.062;2024-03-06T01:59:43;7.30;99.90
7388;DHT22;3735;50.136;11.062;2024-03-06T02:02:09;7.40;99.90
7388;DHT22;3735;50.136;11.062;2024-03-06T02:04:37;7.40;99.90
7388;DHT22;3735;50.136;11.062;2024-03-06T02:07:08;7.30;99.90
7388;DHT22;3735;50.136;11.062;2024-03-06T02:09:38;7.30;99.90
7388;DHT22;3735;50.136;11.062;2024-03-06T02:12:05;7.30;99.90
7388;DHT22;3735;50.136;11.062;2024-03-06T02:14:36;7.30;99.90
7388;DHT22;3735;50.136;11.062;2024-03-06T02:17:02;7.30;99.90
7388;DHT22;3735;50.136;11.062;2024-03-06T02:19:41;7.30;99.90
7388;DHT22;3735;50.136;11.062;2024-03-06T02:22:09;7.30;99.90
7388;DHT22;3735;50.136;11.062;2024-03-06T02:24:36;7.30;99.90
7388;DHT22;3735;50.136;11.062;2024-03-06T02:27:03;7.30;99.90
7388;DHT22;3735;50.136;11.062;2024-03-06T02:29:31;7.30;99.90
7388;DHT22;3735;50.136;11.062;2024-03-06T02:31:58;7.30;99.90
7388;DHT22;3735;50.136;11.062;2024-03-06T02:34:24;7.30;99.90
7388;DHT22;3735;50.136;11.062;2024-03-06T02:36:51;7.30;99.90
7388;DHT22;3735;50.136;11.062;2024-03-06T02:39:17;7.40;99.90
7388;DHT22;3735;50.136;11.062;2024-03-06T02:41:43;7.30;99.90
7388;DHT22;3735;50.136;11.062;2024-03-06T02:44:09;7.40;99.90
7388;DHT22;3735;50.136;11.062;2024-03-06T02:46:35;7.40;99.90
7388;DHT22;3735;50.136;11.062;2024-03-06T02:49:01;7.30;99.90
7388;DHT22;3735;50.136;11.062;2024-03-06T02:51:27;7.40;99.90
7388;DHT22;3735;50.136;11.062;2024-03-06T02:53:52;7.40;99.90
7388;DHT22;3735;50.136;11.062;2024-03-06T02:56:19;7.40;99.90
7388;DHT22;3735;50.136;11.062;2024-03-06T02:58:45;7.30;99.90
7388;DHT22;3735;50.136;11.062;2024-03-06T03:01:11;7.30;99.90
7388;DHT22;3735;50.136;11.062;2024-03-06T03:03:41;7.40;99.90
7388;DHT22;3735;50.136;11.062;2024-03-06T03:06:07;7.30;99.90
7388;DHT22;3735;50.136;11.062;2024-03-06T03:08:33;7.30;99.90
7388;DHT22;3735;50.136;11.062;2024-03-06T03:10:59;7.30;99.90
7388;DHT22;3735;50.136;11.062;2024-03-06T03:13:25;7.30;99.90
7388;DHT22;3735;50.136;11.062;2024-03-06T03:15:50;7.30;99.90
7388;DHT22;3735;50.136;11.062;2024-03-06T03:18:16;7.30;99.90
7388;DHT22;3735;50.136;11.062;2024-03-06T03:20:43;7.30;99.90
7388;DHT22;3735;50.136;11.062;2024-03-06T03:23:09;7.30;99.90
7388;DHT22;3735;50.136;11.062;2024-03-06T03:25:37;7.30;99.90
7388;DHT22;3735;50.136;11.062;2024-03-06T03:28:04;7.30;99.90
7388;DHT22;3735;50.136;11.062;2024-03-06T03:30:30;7.30;99.90
7388;DHT22;3735;50.136;11.062;2024-03-06T03:32:57;7.30;99.90
7388;DHT22;3735;50.136;11.062;2024-03-06T03:35:23;7.30;99.90
7388;DHT22;3735;50.136;11.062;2024-03-06T03:37:54;7.30;99.90
7388;DHT22;3735;50.136;11.062;2024-03-06T03:40:21;7.30;99.90
7388;DHT22;3735;50.136;11.062;2024-03-06T03:42:47;7.30;99.90
7388;DHT22;3735;50.136;11.062;2024-03-06T03:45:13;7.40;99.90
7388;DHT22;3735;50.136;11.062;2024-03-06T03:47:40;7.40;99.90
7388;DHT22;3735;50.136;11.062;2024-03-06T03:50:08;7.40;99.90
7388;DHT22;3735;50.136;11.062;2024-03-06T03:52:35;7.30;99.90
7388;DHT22;3735;50.136;11.062;2024-03-06T03:55:00;7.40;99.90
7388;DHT22;3735;50.136;11.062;2024-03-06T03:57:26;7.40;99.90
7388;DHT22;3735;50.136;11.062;2024-03-06T03:59:52;7.40;99.90
7388;DHT22;3735;50.136;11.062;2024-03-06T04:02:19;7.40;99.90
7388;DHT22;3735;50.136;11.062;2024-03-06T04:04:45;7.40;99.90
7388;DHT22;3735;50.136;11.062;2024-03-06T04:07:10;7.40;99.90
7388;DHT22;3735;50.136;11.062;2024-03-06T04:09:36;7.40;99.90
7388;DHT22;3735;50.136;11.062;2024-03-06T04:12:03;7.40;99.90
7388;DHT22;3735;50.136;11.062;2024-03-06T04:14:29;7.40;99.90
7388;DHT22;3735;50.136;11.062;2024-03-06T04:16:55;7.40;99.90
7388;DHT22;3735;50.136;11.062;2024-03-06T04:19:22;7.40;99.90
7388;DHT22;3735;50.136;11.062;2024-03-06T04:21:47;7.40;99.90
7388;DHT22;3735;50.136;11.062;2024-03-06T04:24:13;7.40;99.90
7388;DHT22;3735;50.136;11.062;2024-03-06T04:26:39;7.40;99.90
7388;DHT22;3735;50.136;11.062;2024-03-06T04:29:05;7.40;99.90
7388;DHT22;3735;50.136;11.062;2024-03-06T04:31:31;7.40;99.90
7388;DHT22;3735;50.136;11.062;2024-03-06T04:33:56;7.40;99.90
7388;DHT22;3735;50.136;11.062;2024-03-06T04:36:22;7.40;99.90
7388;DHT22;3735;50.136;11.062;2024-03-06T04:38:48;7.40;99.90
7388;DHT22;3735;50.136;11.062;2024-03-06T04:41:14;7.30;99.90
7388;DHT22;3735;50.136;11.062;2024-03-06T04:43:40;7.40;99.90
7388;DHT22;3735;50.136;11.062;2024-03-06T04:46:05;7.40;99.90
7388;DHT22;3735;50.136;11.062;2024-03-06T04:48:31;7.30;99.90
7388;DHT22;3735;50.136;11.062;2024-03-06T04:50:57;7.40;99.90
7388;DHT22;3735;50.136;11.062;2024-03-06T04:53:22;7.40;99.90
7388;DHT22;3735;50.136;11.062;2024-03-06T04:55:48;7.40;99.90
7388;DHT22;3735;50.136;11.062;2024-03-06T04:58:14;7.40;99.90
7388;DHT22;3735;50.136;11.062;2024-03-06T05:00:40;7.40;99.90
7388;DHT22;3735;50.136;11.062;2024-03-06T05:03:06;7.30;99.90
7388;DHT22;3735;50.136;11.062;2024-03-06T05:05:31;7.30;99.90
7388;DHT22;3735;50.136;11.062;2024-03-06T05:07:58;7.20;99.90
7388;DHT22;3735;50.136;11.062;2024-03-06T05:10:23;7.20;99.90
7388;DHT22;3735;50.136;11.062;2024-03-06T05:12:49;7.20;99.90
7388;DHT22;3735;50.136;11.062;2024-03-06T05:15:16;7.20;99.90
7388;DHT22;3735;50.136;11.062;2024-03-06T05:17:42;7.20;99.90
7388;DHT22;3735;50.136;11.062;2024-03-06T05:20:09;7.20;99.90
7388;DHT22;3735;50.136;11.062;2024-03-06T05:22:35;7.10;99.90
7388;DHT22;3735;50.136;11.062;2024-03-06T05:25:01;7.10;99.90
7388;DHT22;3735;50.136;11.062;2024-03-06T05:27:28;7.00;99.90
7388;DHT22;3735;50.136;11.062;2024-03-06T05:29:53;7.10;99.90
7388;DHT22;3735;50.136;11.062;2024-03-06T05:32:20;7.10;99.90
7388;DHT22;3735;50.136;11.062;2024-03-06T05:34:45;7.10;99.90
7388;DHT22;3735;50.136;11.062;2024-03-06T05:37:11;7.00;99.90
7388;DHT22;3735;50.136;11.062;2024-03-06T05:39:38;7.00;99.90
7388;DHT22;3735;50.136;11.062;2024-03-06T05:42:04;7.00;99.90
7388;DHT22;3735;50.136;11.062;2024-03-06T05:44:31;6.90;99.90
7388;DHT22;3735;50.136;11.062;2024-03-06T05:47:04;7.00;99.90
7388;DHT22;3735;50.136;11.062;2024-03-06T05:49:31;6.90;99.90
7388;DHT22;3735;50.136;11.062;2024-03-06T05:51:58;6.90;99.90
7388;DHT22;3735;50.136;11.062;2024-03-06T05:54:24;6.90;99.90
7388;DHT22;3735;50.136;11.062;2024-03-06T05:56:50;6.90;99.90
7388;DHT22;3735;50.136;11.062;2024-03-06T05:59:18;6.80;99.90
7388;DHT22;3735;50.136;11.062;2024-03-06T06:01:44;6.80;99.90
7388;DHT22;3735;50.136;11.062;2024-03-06T06:04:10;6.80;99.90
7388;DHT22;3735;50.136;11.062;2024-03-06T06:06:37;6.80;99.90
7388;DHT22;3735;50.136;11.062;2024-03-06T06:09:04;6.80;99.90
7388;DHT22;3735;50.136;11.062;2024-03-06T06:11:33;6.80;99.90
7388;DHT22;3735;50.136;11.062;2024-03-06T06:13:59;6.90;99.90
7388;DHT22;3735;50.136;11.062;2024-03-06T06:16:24;6.90;99.90
7388;DHT22;3735;50.136;11.062;2024-03-06T06:18:50;6.90;99.90
7388;DHT22;3735;50.136;11.062;2024-03-06T06:21:16;7.00;99.90
7388;DHT22;3735;50.136;11.062;2024-03-06T06:23:42;7.00;99.90
7388;DHT22;3735;50.136;11.062;2024-03-06T06:26:08;7.10;99.90
7388;DHT22;3735;50.136;11.062;2024-03-06T06:28:36;7.10;99.90
7388;DHT22;3735;50.136;11.062;2024-03-06T06:31:03;7.20;99.90
7388;DHT22;3735;50.136;11.062;2024-03-06T06:33:30;7.20;99.90
7388;DHT22;3735;50.136;11.062;2024-03-06T06:35:56;7.30;99.90
7388;DHT22;3735;50.136;11.062;2024-03-06T06:38:21;7.30;99.90
7388;DHT22;3735;50.136;11.062;2024-03-06T06:40:47;7.30;99.90
7388;DHT22;3735;50.136;11.062;2024-03-06T06:43:13;7.30;99.90
7388;DHT22;3735;50.136;11.062;2024-03-06T06:45:40;7.30;99.90
7388;DHT22;3735;50.136;11.062;2024-03-06T06:48:06;7.40;99.90
7388;DHT22;3735;50.136;11.062;2024-03-06T06:50:34;7.50;99.90
7388;DHT22;3735;50.136;11.062;2024-03-06T06:53:00;7.60;99.90
7388;DHT22;3735;50.136;11.062;2024-03-06T06:55:26;7.80;99.90
7388;DHT22;3735;50.136;11.062;2024-03-06T06:57:52;7.90;99.90
7388;DHT22;3735;50.136;11.062;2024-03-06T07:00:19;8.10;99.90
7388;DHT22;3735;50.136;11.062;2024-03-06T07:02:47;8.20;99.90
7388;DHT22;3735;50.136;11.062;2024-03-06T07:05:14;8.30;99.90
7388;DHT22;3735;50.136;11.062;2024-03-06T07:07:40;8.40;99.90
7388;DHT22;3735;50.136;11.062;2024-03-06T07:10:07;8.50;99.90
7388;DHT22;3735;50.136;11.062;2024-03-06T07:12:33;8.80;99.90
7388;DHT22;3735;50.136;11.062;2024-03-06T07:15:00;9.20;99.90
7388;DHT22;3735;50.136;11.062;2024-03-06T07:17:28;9.60;99.90
7388;DHT22;3735;50.136;11.062;2024-03-06T07:19:53;10.00;99.90
7388;DHT22;3735;50.136;11.062;2024-03-06T07:22:19;10.30;99.90
7388;DHT22;3735;50.136;11.062;2024-03-06T07:24:45;10.50;99.90
7388;DHT22;3735;50.136;11.062;2024-03-06T07:27:11;10.60;99.90
7388;DHT22;3735;50.136;11.062;2024-03-06T07:29:37;10.70;99.90
7388;DHT22;3735;50.136;11.062;2024-03-06T07:32:06;10.50;99.90
7388;DHT22;3735;50.136;11.062;2024-03-06T07:34:32;10.40;99.90
7388;DHT22;3735;50.136;11.062;2024-03-06T07:36:58;10.30;99.90
7388;DHT22;3735;50.136;11.062;2024-03-06T07:39:27;10.20;99.90
7388;DHT22;3735;50.136;11.062;2024-03-06T07:41:53;10.00;99.90
7388;DHT22;3735;50.136;11.062;2024-03-06T07:44:20;9.90;99.90
7388;DHT22;3735;50.136;11.062;2024-03-06T07:46:46;9.90;99.90
7388;DHT22;3735;50.136;11.062;2024-03-06T07:49:12;10.30;99.90
7388;DHT22;3735;50.136;11.062;2024-03-06T07:51:38;10.40;99.90
7388;DHT22;3735;50.136;11.062;2024-03-06T07:54:06;10.70;99.90
7388;DHT22;3735;50.136;11.062;2024-03-06T07:56:32;10.70;99.90
7388;DHT22;3735;50.136;11.062;2024-03-06T07:58:57;10.60;99.90
7388;DHT22;3735;50.136;11.062;2024-03-06T08:01:25;10.40;99.90
7388;DHT22;3735;50.136;11.062;2024-03-06T08:03:54;10.40;99.90
7388;DHT22;3735;50.136;11.062;2024-03-06T08:06:20;10.30;99.90
7388;DHT22;3735;50.136;11.062;2024-03-06T08:08:46;10.40;99.90
7388;DHT22;3735;50.136;11.062;2024-03-06T08:11:13;11.00;99.90
7388;DHT22;3735;50.136;11.062;2024-03-06T08:13:39;11.50;99.90
7388;DHT22;3735;50.136;11.062;2024-03-06T08:16:06;11.60;99.90
7388;DHT22;3735;50.136;11.062;2024-03-06T08:18:34;12.20;99.90
7388;DHT22;3735;50.136;11.062;2024-03-06T08:21:01;12.30;99.90
7388;DHT22;3735;50.136;11.062;2024-03-06T08:23:28;13.20;99.90
7388;DHT22;3735;50.136;11.062;2024-03-06T08:25:55;13.60;99.90
7388;DHT22;3735;50.136;11.062;2024-03-06T08:28:21;13.80;99.90
7388;DHT22;3735;50.136;11.062;2024-03-06T08:30:47;13.50;99.90
7388;DHT22;3735;50.136;11.062;2024-03-06T08:33:14;12.90;99.90
7388;DHT22;3735;50.136;11.062;2024-03-06T08:35:40;12.70;99.90
7388;DHT22;3735;50.136;11.062;2024-03-06T08:38:06;12.60;99.90
7388;DHT22;3735;50.136;11.062;2024-03-06T08:40:32;12.10;99.90
7388;DHT22;3735;50.136;11.062;2024-03-06T08:42:59;11.90;99.90
7388;DHT22;3735;50.136;11.062;2024-03-06T08:45:24;11.90;99.90
7388;DHT22;3735;50.136;11.062;2024-03-06T08:47:50;12.10;99.90
7388;DHT22;3735;50.136;11.062;2024-03-06T08:50:17;12.10;99.90
7388;DHT22;3735;50.136;11.062;2024-03-06T08:52:43;12.30;99.90
7388;DHT22;3735;50.136;11.062;2024-03-06T08:55:09;12.70;99.90
7388;DHT22;3735;50.136;11.062;2024-03-06T08:57:35;12.80;99.90
7388;DHT22;3735;50.136;11.062;2024-03-06T09:00:03;12.80;99.90
7388;DHT22;3735;50.136;11.062;2024-03-06T09:02:29;12.60;99.90
7388;DHT22;3735;50.136;11.062;2024-03-06T09:04:55;12.60;99.90
7388;DHT22;3735;50.136;11.062;2024-03-06T09:07:22;12.50;99.90
7388;DHT22;3735;50.136;11.062;2024-03-06T09:09:49;12.40;99.90
7388;DHT22;3735;50.136;11.062;2024-03-06T09:12:17;12.30;99.90
7388;DHT22;3735;50.136;11.062;2024-03-06T09:14:43;12.60;99.90
7388;DHT22;3735;50.136;11.062;2024-03-06T09:17:10;12.80;99.90
7388;DHT22;3735;50.136;11.062;2024-03-06T09:19:38;12.90;99.90
7388;DHT22;3735;50.136;11.062;2024-03-06T09:22:04;12.70;99.90
7388;DHT22;3735;50.136;11.062;2024-03-06T09:24:30;12.70;99.90
7388;DHT22;3735;50.136;11.062;2024-03-06T09:26:56;12.70;99.90
7388;DHT22;3735;50.136;11.062;2024-03-06T09:29:21;12.70;99.90
7388;DHT22;3735;50.136;11.062;2024-03-06T09:31:47;12.50;99.90
7388;DHT22;3735;50.136;11.062;2024-03-06T09:34:14;12.30;99.90
7388;DHT22;3735;50.136;11.062;2024-03-06T09:36:46;12.00;99.90
7388;DHT22;3735;50.136;11.062;2024-03-06T09:39:17;11.90;99.90
7388;DHT22;3735;50.136;11.062;2024-03-06T09:41:59;11.80;99.90
7388;DHT22;3735;50.136;11.062;2024-03-06T09:44:25;11.60;99.90
7388;DHT22;3735;50.136;11.062;2024-03-06T09:46:50;11.50;99.90
7388;DHT22;3735;50.136;11.062;2024-03-06T09:49:17;11.50;99.90
7388;DHT22;3735;50.136;11.062;2024-03-06T09:51:46;11.70;99.90
7388;DHT22;3735;50.136;11.062;2024-03-06T09:54:15;11.60;99.90
7388;DHT22;3735;50.136;11.062;2024-03-06T09:56:48;11.40;99.90
7388;DHT22;3735;50.136;11.062;2024-03-06T09:59:15;11.30;99.90
7388;DHT22;3735;50.136;11.062;2024-03-06T10:04:28;11.00;99.90
7388;DHT22;3735;50.136;11.062;2024-03-06T10:06:58;10.80;99.90
7388;DHT22;3735;50.136;11.062;2024-03-06T10:09:26;10.80;99.90
7388;DHT22;3735;50.136;11.062;2024-03-06T10:11:53;10.80;99.90
7388;DHT22;3735;50.136;11.062;2024-03-06T10:14:21;10.80;99.90
7388;DHT22;3735;50.136;11.062;2024-03-06T10:16:57;11.10;99.90
7388;DHT22;3735;50.136;11.062;2024-03-06T10:19:27;11.50;99.90
7388;DHT22;3735;50.136;11.062;2024-03-06T10:21:55;11.80;99.90
7388;DHT22;3735;50.136;11.062;2024-03-06T10:24:29;11.90;99.90
7388;DHT22;3735;50.136;11.062;2024-03-06T10:26:56;12.10;99.90
7388;DHT22;3735;50.136;11.062;2024-03-06T10:29:25;12.00;99.90
7388;DHT22;3735;50.136;11.062;2024-03-06T10:31:54;11.90;99.90
7388;DHT22;3735;50.136;11.062;2024-03-06T10:34:25;12.00;99.90
7388;DHT22;3735;50.136;11.062;2024-03-06T10:36:58;12.40;99.90
7388;DHT22;3735;50.136;11.062;2024-03-06T10:39:27;12.90;99.90
7388;DHT22;3735;50.136;11.062;2024-03-06T10:41:57;12.90;99.90
7388;DHT22;3735;50.136;11.062;2024-03-06T10:44:27;12.70;99.90
7388;DHT22;3735;50.136;11.062;2024-03-06T10:47:01;12.40;99.90
7388;DHT22;3735;50.136;11.062;2024-03-06T10:49:29;12.20;99.90
7388;DHT22;3735;50.136;11.062;2024-03-06T10:52:03;12.10;99.90
7388;DHT22;3735;50.136;11.062;2024-03-06T10:54:34;12.00;99.90
7388;DHT22;3735;50.136;11.062;2024-03-06T10:57:02;11.90;99.90
7388;DHT22;3735;50.136;11.062;2024-03-06T10:59:31;11.50;99.90
7388;DHT22;3735;50.136;11.062;2024-03-06T11:01:58;11.30;99.90
7388;DHT22;3735;50.136;11.062;2024-03-06T11:04:27;10.90;99.90
7388;DHT22;3735;50.136;11.062;2024-03-06T11:06:57;10.60;99.90
7388;DHT22;3735;50.136;11.062;2024-03-06T11:09:25;10.50;99.90
7388;DHT22;3735;50.136;11.062;2024-03-06T11:12:00;10.80;99.90
7388;DHT22;3735;50.136;11.062;2024-03-06T11:20:43;12.70;99.90
7388;DHT22;3735;50.136;11.062;2024-03-06T11:23:10;12.60;99.90
7388;DHT22;3735;50.136;11.062;2024-03-06T11:28:23;12.10;99.90
7388;DHT22;3735;50.136;11.062;2024-03-06T11:33:47;11.80;99.90
7388;DHT22;3735;50.136;11.062;2024-03-06T11:36:22;12.20;99.90
7388;DHT22;3735;50.136;11.062;2024-03-06T11:39:07;12.20;99.90
7388;DHT22;3735;50.136;11.062;2024-03-06T11:41:46;12.20;99.90
7388;DHT22;3735;50.136;11.062;2024-03-06T11:44:18;12.40;99.90
7388;DHT22;3735;50.136;11.062;2024-03-06T11:47:03;12.80;99.90
7388;DHT22;3735;50.136;11.062;2024-03-06T11:49:33;14.60;99.90
7388;DHT22;3735;50.136;11.062;2024-03-06T11:52:04;15.80;99.90
7388;DHT22;3735;50.136;11.062;2024-03-06T11:54:31;16.10;99.90
7388;DHT22;3735;50.136;11.062;2024-03-06T11:57:00;15.60;99.90
7388;DHT22;3735;50.136;11.062;2024-03-06T11:59:32;15.80;99.90
7388;DHT22;3735;50.136;11.062;2024-03-06T12:02:00;17.80;99.90
7388;DHT22;3735;50.136;11.062;2024-03-06T12:04:28;18.40;99.90
7388;DHT22;3735;50.136;11.062;2024-03-06T12:06:58;18.90;99.90
7388;DHT22;3735;50.136;11.062;2024-03-06T12:09:25;19.00;99.90
7388;DHT22;3735;50.136;11.062;2024-03-06T12:11:52;19.40;99.90
7388;DHT22;3735;50.136;11.062;2024-03-06T12:14:19;19.50;99.90
7388;DHT22;3735;50.136;11.062;2024-03-06T12:17:00;18.20;99.90
7388;DHT22;3735;50.136;11.062;2024-03-06T12:19:32;19.00;99.90
7388;DHT22;3735;50.136;11.062;2024-03-06T12:22:00;20.20;99.90
7388;DHT22;3735;50.136;11.062;2024-03-06T12:24:28;19.30;99.90
7388;DHT22;3735;50.136;11.062;2024-03-06T12:27:05;18.10;99.90
7388;DHT22;3735;50.136;11.062;2024-03-06T12:29:34;17.50;99.90
7388;DHT22;3735;50.136;11.062;2024-03-06T12:32:04;17.30;99.90
7388;DHT22;3735;50.136;11.062;2024-03-06T12:34:40;18.00;99.90
7388;DHT22;3735;50.136;11.062;2024-03-06T12:37:10;19.10;99.90
7388;DHT22;3735;50.136;11.062;2024-03-06T12:39:36;18.50;99.90
7388;DHT22;3735;50.136;11.062;2024-03-06T12:42:01;19.30;99.90
7388;DHT22;3735;50.136;11.062;2024-03-06T12:44:27;20.30;99.90
7388;DHT22;3735;50.136;11.062;2024-03-06T12:46:53;19.80;99.90
7388;DHT22;3735;50.136;11.062;2024-03-06T12:49:19;20.30;99.90
7388;DHT22;3735;50.136;11.062;2024-03-06T12:51:45;20.40;99.90
7388;DHT22;3735;50.136;11.062;2024-03-06T12:54:11;20.60;99.90
7388;DHT22;3735;50.136;11.062;2024-03-06T12:56:36;20.80;99.90
7388;DHT22;3735;50.136;11.062;2024-03-06T12:59:02;21.20;99.90
7388;DHT22;3735;50.136;11.062;2024-03-06T13:01:30;21.50;99.90
7388;DHT22;3735;50.136;11.062;2024-03-06T13:03:56;21.30;99.90
7388;DHT22;3735;50.136;11.062;2024-03-06T13:06:22;21.40;99.90
7388;DHT22;3735;50.136;11.062;2024-03-06T13:08:48;21.60;99.90
7388;DHT22;3735;50.136;11.062;2024-03-06T13:11:14;21.80;99.90
7388;DHT22;3735;50.136;11.062;2024-03-06T13:13:39;20.10;99.90
7388;DHT22;3735;50.136;11.062;2024-03-06T13:16:05;20.30;99.90
7388;DHT22;3735;50.136;11.062;2024-03-06T13:18:31;20.60;99.90
7388;DHT22;3735;50.136;11.062;2024-03-06T13:20:57;19.00;99.90
7388;DHT22;3735;50.136;11.062;2024-03-06T13:23:24;17.80;99.90
7388;DHT22;3735;50.136;11.062;2024-03-06T13:25:49;17.90;99.90
7388;DHT22;3735;50.136;11.062;2024-03-06T13:28:15;18.80;99.90
7388;DHT22;3735;50.136;11.062;2024-03-06T13:30:41;19.00;99.90
7388;DHT22;3735;50.136;11.062;2024-03-06T13:33:07;18.90;99.90
7388;DHT22;3735;50.136;11.062;2024-03-06T13:35:33;19.40;99.90
7388;DHT22;3735;50.136;11.062;2024-03-06T13:37:58;19.30;99.90
7388;DHT22;3735;50.136;11.062;2024-03-06T13:40:24;19.10;99.90
7388;DHT22;3735;50.136;11.062;2024-03-06T13:42:52;18.70;99.90
7388;DHT22;3735;50.136;11.062;2024-03-06T13:45:18;17.90;99.90
7388;DHT22;3735;50.136;11.062;2024-03-06T13:47:45;16.80;99.90
7388;DHT22;3735;50.136;11.062;2024-03-06T13:50:12;15.70;99.90
7388;DHT22;3735;50.136;11.062;2024-03-06T13:52:40;15.80;99.90
7388;DHT22;3735;50.136;11.062;2024-03-06T13:55:07;17.40;99.90
7388;DHT22;3735;50.136;11.062;2024-03-06T13:57:37;19.30;99.90
7388;DHT22;3735;50.136;11.062;2024-03-06T14:00:05;20.00;99.90
7388;DHT22;3735;50.136;11.062;2024-03-06T14:02:32;18.30;99.90
7388;DHT22;3735;50.136;11.062;2024-03-06T14:04:58;16.40;99.90
7388;DHT22;3735;50.136;11.062;2024-03-06T14:07:25;16.70;99.90
7388;DHT22;3735;50.136;11.062;2024-03-06T14:09:51;17.70;99.90
7388;DHT22;3735;50.136;11.062;2024-03-06T14:12:16;17.40;99.90
7388;DHT22;3735;50.136;11.062;2024-03-06T14:14:43;17.50;99.90
7388;DHT22;3735;50.136;11.062;2024-03-06T14:17:11;17.30;99.90
7388;DHT22;3735;50.136;11.062;2024-03-06T14:19:38;17.80;99.90
7388;DHT22;3735;50.136;11.062;2024-03-06T14:22:08;17.30;99.90
7388;DHT22;3735;50.136;11.062;2024-03-06T14:24:34;17.50;99.90
7388;DHT22;3735;50.136;11.062;2024-03-06T14:27:03;17.30;99.90
7388;DHT22;3735;50.136;11.062;2024-03-06T14:29:31;16.20;99.90
7388;DHT22;3735;50.136;11.062;2024-03-06T14:31:56;15.10;99.90
7388;DHT22;3735;50.136;11.062;2024-03-06T14:34:22;14.10;99.90
7388;DHT22;3735;50.136;11.062;2024-03-06T14:36:52;13.60;99.90
7388;DHT22;3735;50.136;11.062;2024-03-06T14:39:19;13.70;99.90
7388;DHT22;3735;50.136;11.062;2024-03-06T14:41:49;15.20;99.90
7388;DHT22;3735;50.136;11.062;2024-03-06T14:44:15;17.20;99.90
7388;DHT22;3735;50.136;11.062;2024-03-06T14:46:41;18.10;99.90
7388;DHT22;3735;50.136;11.062;2024-03-06T14:49:08;17.60;99.90
7388;DHT22;3735;50.136;11.062;2024-03-06T14:51:34;16.80;99.90
7388;DHT22;3735;50.136;11.062;2024-03-06T14:54:00;15.90;99.90
7388;DHT22;3735;50.136;11.062;2024-03-06T14:56:26;15.00;99.90
7388;DHT22;3735;50.136;11.062;2024-03-06T14:58:52;14.20;99.90
7388;DHT22;3735;50.136;11.062;2024-03-06T15:01:18;13.70;99.90
7388;DHT22;3735;50.136;11.062;2024-03-06T15:03:44;13.10;99.90
7388;DHT22;3735;50.136;11.062;2024-03-06T15:06:13;12.90;99.90
7388;DHT22;3735;50.136;11.062;2024-03-06T15:08:40;12.70;99.90
7388;DHT22;3735;50.136;11.062;2024-03-06T15:11:07;12.70;99.90
7388;DHT22;3735;50.136;11.062;2024-03-06T15:13:32;12.70;99.90
7388;DHT22;3735;50.136;11.062;2024-03-06T15:15:59;12.60;99.90
7388;DHT22;3735;50.136;11.062;2024-03-06T15:18:24;12.50;99.90
7388;DHT22;3735;50.136;11.062;2024-03-06T15:20:51;12.50;99.90
7388;DHT22;3735;50.136;11.062;2024-03-06T15:23:17;12.60;99.90
7388;DHT22;3735;50.136;11.062;2024-03-06T15:25:43;13.20;99.90
7388;DHT22;3735;50.136;11.062;2024-03-06T15:28:10;13.80;99.90
7388;DHT22;3735;50.136;11.062;2024-03-06T15:30:36;14.00;99.90
7388;DHT22;3735;50.136;11.062;2024-03-06T15:33:06;13.50;99.90
7388;DHT22;3735;50.136;11.062;2024-03-06T15:35:33;13.00;99.90
7388;DHT22;3735;50.136;11.062;2024-03-06T15:37:58;12.50;99.90
7388;DHT22;3735;50.136;11.062;2024-03-06T15:40:24;12.60;99.90
7388;DHT22;3735;50.136;11.062;2024-03-06T15:42:50;12.60;99.90
7388;DHT22;3735;50.136;11.062;2024-03-06T15:45:16;12.60;99.90
7388;DHT22;3735;50.136;11.062;2024-03-06T15:47:42;13.10;99.90
7388;DHT22;3735;50.136;11.062;2024-03-06T15:50:10;13.30;99.90
7388;DHT22;3735;50.136;11.062;2024-03-06T15:52:38;13.30;99.90
7388;DHT22;3735;50.136;11.062;2024-03-06T15:55:07;12.90;99.90
7388;DHT22;3735;50.136;11.062;2024-03-06T15:57:37;12.60;99.90
7388;DHT22;3735;50.136;11.062;2024-03-06T16:00:04;12.20;99.90
7388;DHT22;3735;50.136;11.062;2024-03-06T16:02:32;11.90;99.90
7388;DHT22;3735;50.136;11.062;2024-03-06T16:04:58;11.60;99.90
7388;DHT22;3735;50.136;11.062;2024-03-06T16:07:24;11.50;99.90